Time;durP1;ratioP1;P1;durP2;ratioP2;P2;SDS_P1;SDS_P2;PMS_P1;PMS_P2;Temp;Humidity;BMP_temperature;BMP_pressure;BME280_temperature;BME280_humidity;BME280_pressure;Samples;Min_cycle;Max_cycle;Signal;HPM_P1;HPM_P2
2023/06/26 00:01:51;;;;;;;5.85;4.70;;;18.00;99.90;;;;;;5045201;28;20513;-65
2023/06/26 00:04:16;;;;;;;5.45;4.47;;;18.00;99.90;;;;;;5019772;28;20037;-65
2023/06/26 00:06:42;;;;;;;6.15;5.55;;;17.90;99.90;;;;;;5033457;28;20033;-65
2023/06/26 00:09:08;;;;;;;4.95;4.50;;;18.00;99.90;;;;;;5044626;28;20036;-66
2023/06/26 00:11:34;;;;;;;6.20;4.55;;;18.00;99.90;;;;;;5046429;28;21061;-66
2023/06/26 00:14:00;;;;;;;5.40;4.90;;;18.00;99.90;;;;;;5045867;28;20044;-65
2023/06/26 00:16:26;;;;;;;5.65;4.18;;;17.90;99.90;;;;;;5047029;28;20116;-65
2023/06/26 00:18:53;;;;;;;4.68;4.25;;;17.90;99.90;;;;;;5039579;28;20059;-66
2023/06/26 00:21:19;;;;;;;5.10;4.60;;;17.90;99.90;;;;;;5047226;28;20105;-66
2023/06/26 00:23:45;;;;;;;5.32;4.57;;;17.90;99.90;;;;;;5051699;28;20047;-66
2023/06/26 00:26:11;;;;;;;7.47;4.60;;;17.90;99.90;;;;;;5050527;28;20108;-70
2023/06/26 00:28:37;;;;;;;7.45;4.07;;;17.90;99.90;;;;;;5038573;28;20052;-69
2023/06/26 00:31:03;;;;;;;4.70;4.30;;;17.80;99.90;;;;;;5045244;28;20044;-70
2023/06/26 00:33:29;;;;;;;7.60;4.80;;;17.90;99.90;;;;;;5049350;28;20038;-69
2023/06/26 00:35:54;;;;;;;4.80;3.95;;;17.80;99.90;;;;;;5047831;28;20064;-70
2023/06/26 00:38:21;;;;;;;5.68;4.50;;;17.80;99.90;;;;;;5051593;28;20547;-69
2023/06/26 00:40:46;;;;;;;4.88;4.32;;;17.80;99.90;;;;;;5052728;28;20119;-70
2023/06/26 00:43:12;;;;;;;6.50;4.32;;;17.80;99.90;;;;;;5050198;28;20049;-70
2023/06/26 00:45:38;;;;;;;5.13;4.00;;;17.70;99.90;;;;;;5043124;28;20113;-66
2023/06/26 00:48:04;;;;;;;5.25;4.53;;;17.60;99.90;;;;;;5046257;28;20039;-66
2023/06/26 00:50:30;;;;;;;6.05;4.47;;;17.50;99.90;;;;;;5049943;28;20080;-66
2023/06/26 00:53:00;;;;;;;5.85;4.22;;;17.50;99.90;;;;;;5035091;28;20029;-66
2023/06/26 00:55:26;;;;;;;6.32;4.28;;;17.40;99.90;;;;;;5055187;28;20403;-66
2023/06/26 00:57:52;;;;;;;4.95;4.45;;;17.40;99.90;;;;;;5053472;28;20101;-66
2023/06/26 01:00:18;;;;;;;4.57;4.18;;;17.40;99.90;;;;;;5035903;28;20032;-67
2023/06/26 01:02:44;;;;;;;4.55;4.15;;;17.40;99.90;;;;;;5050514;28;20491;-66
2023/06/26 01:05:12;;;;;;;5.03;4.28;;;17.40;99.90;;;;;;5056931;28;20045;-66
2023/06/26 01:07:38;;;;;;;7.63;4.18;;;17.40;99.90;;;;;;5060405;28;20048;-66
2023/06/26 01:10:06;;;;;;;6.55;4.50;;;17.40;99.90;;;;;;5053241;28;20029;-66
2023/06/26 01:12:33;;;;;;;7.50;4.25;;;17.30;99.90;;;;;;5051340;28;20027;-66
2023/06/26 01:14:59;;;;;;;5.05;4.20;;;17.20;99.90;;;;;;5048357;28;20043;-66
2023/06/26 01:17:31;;;;;;;6.18;3.97;;;17.20;99.90;;;;;;5052802;28;20032;-66
2023/06/26 01:20:00;;;;;;;6.53;3.67;;;17.20;99.90;;;;;;5051086;28;20048;-66
2023/06/26 01:22:31;;;;;;;4.20;3.75;;;17.20;99.90;;;;;;5056085;28;20028;-66
2023/06/26 01:25:20;;;;;;;5.57;4.50;;;17.20;99.90;;;;;;5057250;28;20107;-66
2023/06/26 01:27:52;;;;;;;4.63;3.97;;;17.10;99.90;;;;;;5011769;28;21029;-66
2023/06/26 01:30:19;;;;;;;4.53;3.95;;;17.10;99.90;;;;;;5049156;28;20658;-66
2023/06/26 01:32:45;;;;;;;6.10;3.88;;;17.00;99.90;;;;;;5055911;28;20020;-66
2023/06/26 01:35:12;;;;;;;8.00;4.07;;;17.00;99.90;;;;;;5032257;28;20511;-66
2023/06/26 01:37:38;;;;;;;5.10;3.90;;;17.00;99.90;;;;;;5059427;28;20036;-66
2023/06/26 01:40:06;;;;;;;4.90;4.40;;;17.00;99.90;;;;;;5058603;28;20028;-66
2023/06/26 01:42:33;;;;;;;4.25;3.85;;;17.00;99.90;;;;;;5044323;28;20040;-66
2023/06/26 01:45:23;;;;;;;5.78;4.30;;;16.90;99.90;;;;;;5054215;28;20392;-66
2023/06/26 01:47:52;;;;;;;4.78;4.30;;;16.90;99.90;;;;;;5059086;28;20036;-66
2023/06/26 01:50:23;;;;;;;7.20;3.92;;;16.90;99.90;;;;;;5057021;28;20584;-66
2023/06/26 01:53:05;;;;;;;4.35;3.88;;;16.90;99.90;;;;;;5051513;28;20041;-66
2023/06/26 01:55:50;;;;;;;4.55;4.15;;;16.80;99.90;;;;;;5055581;28;20558;-66
2023/06/26 01:58:16;;;;;;;5.40;4.43;;;16.80;99.90;;;;;;5054756;28;20219;-68
2023/06/26 02:00:43;;;;;;;4.78;3.85;;;16.80;99.90;;;;;;5057939;28;20384;-69
2023/06/26 02:03:09;;;;;;;5.38;3.80;;;16.70;99.90;;;;;;5059281;28;20825;-69
2023/06/26 02:05:34;;;;;;;6.10;4.43;;;16.80;99.90;;;;;;5053436;28;20147;-69
2023/06/26 02:08:03;;;;;;;5.07;4.22;;;16.80;99.90;;;;;;5057392;28;20032;-70
2023/06/26 02:10:29;;;;;;;5.13;3.97;;;16.80;99.90;;;;;;5055214;28;20052;-70
2023/06/26 02:12:55;;;;;;;3.92;3.58;;;16.80;99.90;;;;;;5052504;28;20082;-69
2023/06/26 02:15:21;;;;;;;4.32;3.92;;;16.80;99.90;;;;;;5056881;28;20033;-70
2023/06/26 02:17:48;;;;;;;4.32;3.47;;;16.80;99.90;;;;;;5046140;28;20048;-69
2023/06/26 02:20:17;;;;;;;8.55;3.88;;;16.70;99.90;;;;;;5058015;28;20040;-69
2023/06/26 02:22:42;;;;;;;4.05;3.47;;;16.70;99.90;;;;;;5059364;28;20033;-69
2023/06/26 02:25:10;;;;;;;6.07;4.20;;;16.70;99.90;;;;;;5041851;28;20039;-70
2023/06/26 02:27:35;;;;;;;5.50;3.80;;;16.70;99.90;;;;;;5061565;28;20610;-70
2023/06/26 02:30:02;;;;;;;5.82;3.80;;;16.60;99.90;;;;;;5058987;28;20028;-70
2023/06/26 02:32:27;;;;;;;4.63;3.38;;;16.60;99.90;;;;;;5053671;28;20063;-69
2023/06/26 02:34:53;;;;;;;5.00;4.00;;;16.50;99.90;;;;;;5051265;28;20115;-70
2023/06/26 02:37:19;;;;;;;5.18;4.35;;;16.60;99.90;;;;;;5055597;28;20105;-66
2023/06/26 02:39:45;;;;;;;4.95;4.05;;;16.50;99.90;;;;;;5055344;28;21086;-66
2023/06/26 02:42:11;;;;;;;6.25;3.60;;;16.60;99.90;;;;;;5050593;28;20127;-66
2023/06/26 02:44:36;;;;;;;4.50;3.92;;;16.60;99.90;;;;;;5055527;28;20563;-66
2023/06/26 02:47:03;;;;;;;4.53;3.83;;;16.60;99.90;;;;;;5045866;28;20021;-65
2023/06/26 02:49:28;;;;;;;4.80;4.22;;;16.60;99.90;;;;;;5050454;28;20012;-66
2023/06/26 02:51:54;;;;;;;4.75;4.20;;;16.50;99.90;;;;;;5054335;28;20331;-66
2023/06/26 02:54:19;;;;;;;5.93;4.40;;;16.40;99.90;;;;;;5056786;28;20028;-66
2023/06/26 02:56:45;;;;;;;4.82;4.28;;;16.40;99.90;;;;;;5060452;28;20131;-65
2023/06/26 02:59:10;;;;;;;5.18;3.72;;;16.50;99.90;;;;;;5056154;28;20033;-66
2023/06/26 03:01:36;;;;;;;3.90;3.58;;;16.50;99.90;;;;;;5057378;28;20036;-65
2023/06/26 03:04:02;;;;;;;6.15;3.70;;;16.50;99.90;;;;;;5057739;28;20086;-66
2023/06/26 03:06:27;;;;;;;7.70;3.53;;;16.50;99.90;;;;;;5043571;28;20142;-66
2023/06/26 03:08:53;;;;;;;3.65;3.35;;;16.40;99.90;;;;;;5052443;28;20043;-66
2023/06/26 03:11:19;;;;;;;7.55;3.67;;;16.40;99.90;;;;;;5054924;28;20049;-66
2023/06/26 03:13:45;;;;;;;4.35;3.80;;;16.30;99.90;;;;;;5052790;28;20059;-69
2023/06/26 03:16:11;;;;;;;4.88;3.90;;;16.30;99.90;;;;;;5052251;28;20048;-69
2023/06/26 03:18:36;;;;;;;4.95;3.33;;;16.30;99.90;;;;;;5038107;28;20033;-70
2023/06/26 03:21:02;;;;;;;5.30;4.20;;;16.30;99.90;;;;;;5053768;28;20041;-69
2023/06/26 03:23:28;;;;;;;7.03;3.90;;;16.40;99.90;;;;;;5032068;28;20905;-69
2023/06/26 03:25:54;;;;;;;5.72;3.80;;;16.40;99.90;;;;;;5054450;28;20086;-69
2023/06/26 03:28:19;;;;;;;7.05;4.35;;;16.50;99.90;;;;;;5052054;28;20635;-69
2023/06/26 03:30:45;;;;;;;5.30;3.40;;;16.50;99.90;;;;;;5050320;28;20049;-69
2023/06/26 03:33:11;;;;;;;6.40;3.72;;;16.60;99.90;;;;;;5052240;28;20079;-69
2023/06/26 03:35:37;;;;;;;6.68;3.70;;;16.60;99.90;;;;;;5055524;28;20579;-69
2023/06/26 03:38:04;;;;;;;3.90;3.30;;;16.60;99.90;;;;;;5051899;28;20032;-69
2023/06/26 03:40:30;;;;;;;4.53;3.47;;;16.70;99.90;;;;;;5049152;28;20064;-69
2023/06/26 03:42:55;;;;;;;4.38;3.97;;;16.70;99.90;;;;;;5052644;28;20553;-69
2023/06/26 03:45:21;;;;;;;6.05;4.20;;;16.80;99.90;;;;;;5054989;28;20038;-70
2023/06/26 03:47:48;;;;;;;3.50;3.20;;;16.80;99.90;;;;;;5055217;28;20661;-69
2023/06/26 03:50:15;;;;;;;3.45;3.05;;;16.90;99.90;;;;;;5053355;28;20037;-70
2023/06/26 03:52:41;;;;;;;3.63;2.92;;;17.00;99.90;;;;;;5057632;28;20040;-69
2023/06/26 03:55:06;;;;;;;4.32;3.63;;;17.00;99.90;;;;;;5051886;28;20367;-69
2023/06/26 03:57:32;;;;;;;3.47;3.17;;;16.90;99.90;;;;;;5050364;28;20547;-69
2023/06/26 03:59:57;;;;;;;5.82;3.35;;;16.90;99.90;;;;;;5053374;28;20485;-70
2023/06/26 04:02:23;;;;;;;5.22;3.33;;;16.90;99.90;;;;;;5052244;28;20025;-70
2023/06/26 04:04:49;;;;;;;4.63;3.30;;;16.90;99.90;;;;;;5056483;28;20704;-70
2023/06/26 04:07:15;;;;;;;4.10;3.15;;;17.10;99.90;;;;;;5053921;28;20075;-70
2023/06/26 04:09:40;;;;;;;4.13;3.28;;;17.10;99.90;;;;;;5059727;28;20182;-70
2023/06/26 04:12:06;;;;;;;6.05;3.47;;;17.20;99.90;;;;;;5044801;28;20056;-70
2023/06/26 04:14:32;;;;;;;3.85;3.45;;;17.30;99.90;;;;;;5047212;28;22079;-70
2023/06/26 04:16:58;;;;;;;4.00;3.35;;;17.30;99.90;;;;;;5037005;28;20040;-70
2023/06/26 04:19:23;;;;;;;4.75;3.40;;;17.40;99.90;;;;;;5056391;28;20041;-69
2023/06/26 04:21:49;;;;;;;6.32;4.15;;;17.50;99.90;;;;;;5039116;28;20043;-70
2023/06/26 04:24:15;;;;;;;5.70;4.25;;;17.60;99.90;;;;;;5057324;28;20037;-70
2023/06/26 04:26:45;;;;;;;5.47;3.70;;;17.70;99.90;;;;;;5056612;28;20037;-63
2023/06/26 04:29:10;;;;;;;7.80;4.00;;;17.80;99.90;;;;;;5052180;28;20029;-63
2023/06/26 04:31:36;;;;;;;4.05;3.65;;;17.90;99.90;;;;;;5051714;28;20102;-64
2023/06/26 04:34:02;;;;;;;6.18;3.90;;;17.90;99.90;;;;;;5049760;28;20086;-64
2023/06/26 04:36:31;;;;;;;3.88;3.58;;;18.10;99.90;;;;;;5056055;28;20047;-63
2023/06/26 04:38:58;;;;;;;5.00;3.63;;;18.20;99.90;;;;;;5056437;28;20037;-63
2023/06/26 04:41:24;;;;;;;5.85;3.40;;;18.30;99.90;;;;;;5054281;28;20041;-63
2023/06/26 04:43:50;;;;;;;17.58;3.83;;;18.40;99.90;;;;;;5054370;28;20039;-64
2023/06/26 04:46:16;;;;;;;24.80;4.35;;;18.50;99.90;;;;;;5054332;28;20033;-63
2023/06/26 04:48:44;;;;;;;4.85;3.30;;;18.60;99.90;;;;;;5061595;28;20485;-63
2023/06/26 04:51:10;;;;;;;22.33;3.80;;;18.70;99.90;;;;;;5055030;28;20061;-64
2023/06/26 04:53:36;;;;;;;6.90;3.70;;;18.90;99.90;;;;;;5059975;28;20040;-63
2023/06/26 04:56:02;;;;;;;5.15;3.58;;;18.90;99.90;;;;;;5056480;28;20043;-64
2023/06/26 04:58:27;;;;;;;13.48;5.30;;;19.00;99.90;;;;;;5058428;28;20949;-63
2023/06/26 05:00:53;;;;;;;5.78;3.58;;;19.10;99.90;;;;;;5051742;28;20043;-64
2023/06/26 05:03:19;;;;;;;5.53;4.10;;;19.30;99.90;;;;;;5056939;28;20147;-62
2023/06/26 05:05:45;;;;;;;4.93;3.47;;;19.30;99.90;;;;;;5055751;28;20052;-63
2023/06/26 05:08:24;;;;;;;4.40;3.80;;;19.40;99.90;;;;;;5042719;28;20032;-63
2023/06/26 05:10:50;;;;;;;5.50;3.80;;;19.50;99.90;;;;;;5056396;28;20037;-62
2023/06/26 05:13:17;;;;;;;5.38;3.70;;;19.60;99.90;;;;;;5057180;28;20036;-63
2023/06/26 05:15:44;;;;;;;4.13;3.72;;;19.70;99.90;;;;;;5055128;28;20638;-63
2023/06/26 05:18:10;;;;;;;4.88;3.90;;;19.80;99.90;;;;;;5053822;28;20035;-64
2023/06/26 05:20:36;;;;;;;5.85;3.92;;;19.90;99.90;;;;;;5050904;28;20107;-64
2023/06/26 05:23:03;;;;;;;4.53;4.00;;;20.00;99.90;;;;;;5038318;28;20066;-64
2023/06/26 05:25:33;;;;;;;4.93;3.63;;;20.10;99.90;;;;;;5056534;28;20518;-63
2023/06/26 05:27:59;;;;;;;3.58;3.28;;;20.20;99.90;;;;;;5054573;28;20049;-64
2023/06/26 05:30:25;;;;;;;4.15;3.75;;;20.20;99.90;;;;;;5054586;28;20262;-64
2023/06/26 05:32:53;;;;;;;6.75;3.85;;;20.30;99.90;;;;;;5056615;28;20048;-64
2023/06/26 05:35:20;;;;;;;4.97;3.10;;;20.30;99.90;;;;;;5048950;28;20112;-63
2023/06/26 05:37:48;;;;;;;5.65;3.40;;;20.40;99.90;;;;;;5028613;28;20858;-69
2023/06/26 05:40:15;;;;;;;4.25;3.55;;;20.40;99.90;;;;;;5037726;28;20041;-72
2023/06/26 05:42:41;;;;;;;8.18;3.75;;;20.50;99.90;;;;;;5041623;28;20028;-65
2023/06/26 05:45:07;;;;;;;11.10;3.78;;;20.60;99.90;;;;;;5049395;28;20035;-71
2023/06/26 05:47:33;;;;;;;4.28;3.30;;;20.70;99.90;;;;;;5048459;28;20029;-70
2023/06/26 05:49:59;;;;;;;6.60;3.70;;;20.80;99.90;;;;;;5041770;28;20396;-70
2023/06/26 05:52:24;;;;;;;4.45;3.40;;;20.90;99.90;;;;;;5057181;28;20036;-71
2023/06/26 05:54:50;;;;;;;5.72;3.03;;;21.00;99.90;;;;;;5060045;28;20613;-70
2023/06/26 05:57:17;;;;;;;3.30;2.75;;;21.00;99.90;;;;;;5053228;28;20127;-65
2023/06/26 05:59:43;;;;;;;4.57;3.13;;;21.20;99.90;;;;;;5046914;28;20119;-65
2023/06/26 06:02:09;;;;;;;4.65;3.35;;;21.20;99.90;;;;;;5055711;28;20108;-65
2023/06/26 06:04:37;;;;;;;3.80;3.13;;;21.30;99.90;;;;;;5061466;28;20513;-65
2023/06/26 06:07:02;;;;;;;4.18;3.50;;;21.40;99.90;;;;;;5058785;28;20394;-65
2023/06/26 06:09:28;;;;;;;5.07;3.42;;;21.50;99.90;;;;;;5061520;28;20036;-65
2023/06/26 06:11:53;;;;;;;5.40;3.88;;;21.50;99.90;;;;;;5049695;28;20048;-65
2023/06/26 06:14:19;;;;;;;6.65;2.97;;;21.60;99.90;;;;;;5053016;28;20047;-65
2023/06/26 06:16:45;;;;;;;5.93;3.58;;;21.70;99.90;;;;;;5058849;28;20774;-70
2023/06/26 06:19:12;;;;;;;3.58;3.28;;;21.70;99.90;;;;;;5058759;28;20036;-70
2023/06/26 06:21:38;;;;;;;4.13;3.25;;;21.90;99.90;;;;;;5059358;28;20028;-70
2023/06/26 06:24:04;;;;;;;3.63;3.33;;;21.90;99.90;;;;;;5038346;28;20048;-71
2023/06/26 06:26:29;;;;;;;5.13;3.58;;;22.00;99.90;;;;;;5058360;28;20511;-70
2023/06/26 06:28:55;;;;;;;3.58;3.28;;;22.10;99.90;;;;;;5053205;28;20044;-70
2023/06/26 06:31:21;;;;;;;4.40;3.45;;;22.20;99.90;;;;;;5029621;28;20048;-70
2023/06/26 06:33:46;;;;;;;3.65;3.22;;;22.20;99.90;;;;;;5051751;28;20472;-70
2023/06/26 06:36:12;;;;;;;3.63;3.20;;;22.30;99.90;;;;;;5052697;28;20416;-65
2023/06/26 06:38:37;;;;;;;6.90;3.35;;;22.30;99.90;;;;;;5050268;28;20044;-65
2023/06/26 06:41:03;;;;;;;3.83;3.17;;;22.30;99.90;;;;;;5053851;28;20032;-65
2023/06/26 06:43:29;;;;;;;3.88;3.47;;;22.40;99.90;;;;;;5051351;28;20122;-65
2023/06/26 06:45:54;;;;;;;4.25;3.22;;;22.50;99.90;;;;;;5054282;28;20042;-65
2023/06/26 06:48:20;;;;;;;4.90;3.08;;;22.70;99.90;;;;;;5058517;28;20037;-65
2023/06/26 06:50:45;;;;;;;3.65;3.15;;;22.80;99.90;;;;;;5058474;28;20055;-65
2023/06/26 06:53:11;;;;;;;4.43;3.50;;;22.90;99.90;;;;;;5048363;28;20067;-65
2023/06/26 06:55:37;;;;;;;5.10;3.63;;;23.00;99.90;;;;;;5055210;28;20039;-65
2023/06/26 06:58:03;;;;;;;5.18;3.70;;;23.10;99.90;;;;;;5053415;28;20449;-65
2023/06/26 07:00:28;;;;;;;3.90;3.55;;;23.10;99.90;;;;;;5059114;28;20729;-65
2023/06/26 07:02:56;;;;;;;3.58;3.28;;;23.10;99.90;;;;;;5057438;28;20457;-65
2023/06/26 07:05:22;;;;;;;4.93;4.00;;;23.10;99.90;;;;;;5053609;28;20029;-65
2023/06/26 07:07:47;;;;;;;4.68;3.10;;;23.20;99.90;;;;;;5053591;28;20056;-65
2023/06/26 07:10:14;;;;;;;5.10;3.60;;;23.30;99.90;;;;;;5051686;28;20052;-66
2023/06/26 07:12:39;;;;;;;7.60;4.15;;;23.50;99.90;;;;;;5057383;28;20047;-70
2023/06/26 07:15:06;;;;;;;6.90;3.78;;;23.40;99.90;;;;;;5052617;28;20393;-65
2023/06/26 07:17:32;;;;;;;4.70;3.85;;;23.40;99.90;;;;;;5058287;28;20040;-65
2023/06/26 07:19:59;;;;;;;7.65;3.65;;;23.30;99.90;;;;;;5041733;28;20401;-70
2023/06/26 07:22:25;;;;;;;5.53;3.80;;;23.40;99.90;;;;;;5051994;28;20060;-70
2023/06/26 07:24:51;;;;;;;6.05;3.70;;;23.50;99.90;;;;;;5052998;28;20159;-71
2023/06/26 07:27:19;;;;;;;5.55;3.83;;;23.50;99.90;;;;;;5056479;28;20123;-70
2023/06/26 07:29:45;;;;;;;6.07;4.45;;;23.40;99.90;;;;;;5057552;28;20658;-71
2023/06/26 07:32:11;;;;;;;4.07;3.72;;;23.40;99.90;;;;;;5052869;28;20040;-71
2023/06/26 07:34:37;;;;;;;5.30;3.88;;;23.50;99.90;;;;;;5058642;28;20093;-71
2023/06/26 07:37:03;;;;;;;4.55;4.15;;;23.50;99.90;;;;;;5060186;28;20508;-70
2023/06/26 07:39:28;;;;;;;5.45;3.70;;;23.40;99.90;;;;;;5056244;28;20044;-70
2023/06/26 07:41:54;;;;;;;4.70;3.70;;;23.40;99.90;;;;;;5054827;28;20032;-71
2023/06/26 07:44:20;;;;;;;4.82;3.45;;;23.30;99.90;;;;;;5053996;28;20075;-70
2023/06/26 07:46:46;;;;;;;6.30;3.80;;;23.30;99.90;;;;;;5056435;28;20028;-70
2023/06/26 07:49:11;;;;;;;5.28;3.47;;;23.30;99.90;;;;;;5055496;28;20409;-70
2023/06/26 07:51:38;;;;;;;5.68;3.50;;;23.30;99.90;;;;;;5057037;28;20048;-70
2023/06/26 07:54:04;;;;;;;4.28;3.83;;;23.30;99.90;;;;;;5053095;28;20513;-70
2023/06/26 07:56:29;;;;;;;4.18;3.78;;;23.30;99.90;;;;;;5056902;28;20032;-71
2023/06/26 07:58:57;;;;;;;3.95;3.58;;;23.40;99.90;;;;;;5056361;28;20028;-70
2023/06/26 08:01:23;;;;;;;6.03;3.72;;;23.40;99.90;;;;;;5048696;28;20693;-69
2023/06/26 08:03:49;;;;;;;4.05;3.72;;;23.40;99.90;;;;;;5052433;28;20032;-70
2023/06/26 08:06:14;;;;;;;4.30;3.60;;;23.50;99.90;;;;;;5050132;28;20406;-66
2023/06/26 08:08:40;;;;;;;5.28;3.50;;;23.60;99.90;;;;;;5051091;28;20020;-64
2023/06/26 08:11:06;;;;;;;4.57;3.80;;;23.80;99.90;;;;;;5053245;28;20057;-65
2023/06/26 08:13:31;;;;;;;3.95;3.60;;;23.90;99.90;;;;;;5055664;28;20029;-65
2023/06/26 08:15:57;;;;;;;5.57;3.92;;;24.00;99.90;;;;;;5058421;28;20044;-65
2023/06/26 08:18:23;;;;;;;4.65;4.10;;;24.00;99.90;;;;;;5057024;28;20040;-65
2023/06/26 08:20:48;;;;;;;6.03;3.90;;;24.00;99.90;;;;;;5057277;28;20071;-65
2023/06/26 08:23:14;;;;;;;4.18;3.80;;;24.00;99.90;;;;;;5041245;28;20040;-71
2023/06/26 08:25:40;;;;;;;5.53;4.50;;;24.20;99.90;;;;;;5048350;28;20032;-71
2023/06/26 08:28:05;;;;;;;5.53;3.58;;;24.30;99.90;;;;;;5057416;28;20404;-70
2023/06/26 08:30:32;;;;;;;5.65;3.80;;;24.30;99.90;;;;;;5058049;28;20040;-71
2023/06/26 08:32:58;;;;;;;7.88;4.30;;;24.20;99.90;;;;;;5055446;28;20052;-71
2023/06/26 08:35:23;;;;;;;5.70;4.18;;;24.20;99.90;;;;;;5052980;28;20397;-71
2023/06/26 08:37:49;;;;;;;6.03;4.22;;;24.20;99.90;;;;;;5054982;28;20048;-70
2023/06/26 08:40:20;;;;;;;6.82;4.35;;;24.20;99.90;;;;;;5038813;28;20102;-70
2023/06/26 08:42:46;;;;;;;5.30;3.83;;;24.30;99.90;;;;;;5050816;28;20045;-70
2023/06/26 08:45:12;;;;;;;4.47;3.78;;;24.30;99.90;;;;;;5029890;28;20285;-65
2023/06/26 08:47:39;;;;;;;7.68;4.47;;;24.30;99.90;;;;;;5045639;28;20087;-65
2023/06/26 08:50:09;;;;;;;3.67;3.38;;;24.50;99.90;;;;;;5051342;28;20106;-65
2023/06/26 08:52:41;;;;;;;5.95;4.38;;;24.50;99.90;;;;;;5048131;28;20627;-65
2023/06/26 08:55:10;;;;;;;4.72;4.18;;;24.50;99.90;;;;;;5048891;28;20032;-65
2023/06/26 08:57:36;;;;;;;6.45;4.32;;;24.50;99.90;;;;;;5053594;28;20028;-64
2023/06/26 09:00:03;;;;;;;4.85;4.35;;;24.60;99.90;;;;;;5057257;28;20508;-65
2023/06/26 09:02:29;;;;;;;4.75;4.03;;;24.70;99.90;;;;;;5047866;28;20748;-69
2023/06/26 09:04:54;;;;;;;4.22;3.80;;;24.70;99.90;;;;;;5042053;28;20067;-70
2023/06/26 09:07:20;;;;;;;4.38;3.97;;;24.70;99.90;;;;;;5036322;28;20040;-70
2023/06/26 09:09:46;;;;;;;5.70;4.07;;;24.80;99.90;;;;;;5049426;28;21168;-71
2023/06/26 09:12:13;;;;;;;4.95;4.10;;;24.80;99.90;;;;;;5050430;28;20451;-71
2023/06/26 09:14:39;;;;;;;6.30;3.60;;;24.90;99.90;;;;;;5046902;28;20485;-71
2023/06/26 09:17:04;;;;;;;5.18;3.85;;;25.00;99.90;;;;;;5053883;28;20113;-71
2023/06/26 09:19:30;;;;;;;7.07;3.90;;;25.10;99.90;;;;;;5053349;28;20036;-70
2023/06/26 09:21:56;;;;;;;4.65;3.78;;;25.10;99.90;;;;;;5044568;28;20060;-71
2023/06/26 09:24:23;;;;;;;4.10;3.70;;;25.20;99.90;;;;;;5062144;28;20031;-71
2023/06/26 09:26:49;;;;;;;3.78;3.45;;;25.20;99.90;;;;;;5058356;28;20516;-71
2023/06/26 09:29:17;;;;;;;4.18;3.38;;;25.10;99.90;;;;;;5059198;28;20045;-70
2023/06/26 09:31:44;;;;;;;8.23;3.50;;;24.90;99.90;;;;;;5059806;28;20068;-70
2023/06/26 09:34:10;;;;;;;4.30;3.83;;;24.90;99.90;;;;;;5059730;28;20032;-71
2023/06/26 09:36:36;;;;;;;5.43;3.95;;;25.10;99.90;;;;;;5054408;28;20152;-71
2023/06/26 09:39:04;;;;;;;4.70;3.60;;;25.20;99.90;;;;;;5056794;28;20123;-71
2023/06/26 09:41:30;;;;;;;4.10;3.70;;;25.40;99.90;;;;;;5053796;28;20043;-70
2023/06/26 09:44:02;;;;;;;7.75;4.30;;;25.50;99.90;;;;;;5056299;28;20181;-70
2023/06/26 09:46:29;;;;;;;6.10;3.40;;;25.50;99.90;;;;;;5062629;28;20024;-71
2023/06/26 09:49:06;;;;;;;4.18;3.60;;;25.50;99.90;;;;;;5060842;28;20020;-71
2023/06/26 09:51:36;;;;;;;4.60;4.20;;;25.40;99.90;;;;;;5054651;28;20059;-71
2023/06/26 09:54:03;;;;;;;4.60;4.20;;;25.30;99.90;;;;;;5052599;28;20071;-71
2023/06/26 09:56:29;;;;;;;4.32;3.78;;;25.30;99.90;;;;;;5057558;28;20040;-71
2023/06/26 09:59:03;;;;;;;7.53;4.10;;;25.30;99.90;;;;;;5048035;28;20037;-65
2023/06/26 10:01:31;;;;;;;4.82;3.67;;;25.20;99.90;;;;;;5058224;28;20042;-65
2023/06/26 10:03:57;;;;;;;5.43;4.18;;;25.20;99.90;;;;;;5055063;28;20090;-65
2023/06/26 10:06:35;;;;;;;3.85;3.55;;;25.10;99.90;;;;;;5056625;28;20055;-65
2023/06/26 10:09:03;;;;;;;4.65;3.90;;;24.90;99.90;;;;;;5048324;28;20151;-65
2023/06/26 10:11:48;;;;;;;5.68;3.90;;;24.90;99.90;;;;;;5052710;28;20104;-65
2023/06/26 10:14:16;;;;;;;4.78;3.80;;;24.80;99.90;;;;;;5057077;28;20181;-65
2023/06/26 10:16:44;;;;;;;7.38;3.97;;;24.80;99.90;;;;;;5055879;28;20051;-65
2023/06/26 10:19:11;;;;;;;4.65;3.90;;;24.80;99.90;;;;;;5055594;28;20078;-65
2023/06/26 10:21:39;;;;;;;4.43;3.92;;;24.80;99.90;;;;;;5057962;28;20033;-65
2023/06/26 10:24:06;;;;;;;4.50;3.80;;;24.80;99.90;;;;;;5048142;28;20153;-65
2023/06/26 10:26:38;;;;;;;5.15;4.18;;;24.80;99.90;;;;;;5057911;28;20094;-65
2023/06/26 10:29:05;;;;;;;4.35;3.85;;;24.90;99.90;;;;;;5055707;28;20078;-65
2023/06/26 10:31:32;;;;;;;6.00;4.13;;;25.00;99.90;;;;;;5054712;28;20102;-65
2023/06/26 10:33:57;;;;;;;4.55;3.97;;;25.10;99.90;;;;;;5058908;28;20033;-65
2023/06/26 10:36:31;;;;;;;8.13;3.88;;;25.10;99.90;;;;;;5048288;28;20159;-65
2023/06/26 10:39:01;;;;;;;4.32;3.67;;;25.20;99.90;;;;;;5055182;28;20116;-65
2023/06/26 10:41:27;;;;;;;4.78;4.28;;;25.30;99.90;;;;;;5054621;28;20047;-65
2023/06/26 10:44:01;;;;;;;4.38;3.85;;;25.30;99.90;;;;;;5058076;28;20845;-65
2023/06/26 10:46:29;;;;;;;4.65;4.15;;;25.30;99.90;;;;;;5053820;28;20146;-65
2023/06/26 10:48:59;;;;;;;3.75;3.45;;;25.40;99.90;;;;;;5039653;28;20052;-65
2023/06/26 10:51:26;;;;;;;3.90;3.60;;;25.50;99.90;;;;;;5042560;28;20040;-65
2023/06/26 10:53:58;;;;;;;4.88;3.60;;;25.60;99.90;;;;;;5046171;28;20454;-71
2023/06/26 10:56:41;;;;;;;;;;;25.70;99.90;;;;;;5048935;28;20048;-71
2023/06/26 10:59:25;;;;;;;5.82;3.85;;;25.60;99.90;;;;;;5053273;28;20011;-71
2023/06/26 11:02:05;;;;;;;4.88;3.20;;;25.50;99.90;;;;;;5049067;28;20585;-70
2023/06/26 11:04:36;;;;;;;4.40;3.80;;;25.60;99.90;;;;;;5048327;28;20056;-70
2023/06/26 11:07:34;;;;;;;4.32;3.83;;;25.80;99.90;;;;;;5052731;28;20539;-70
2023/06/26 11:10:02;;;;;;;6.10;3.60;;;25.90;99.90;;;;;;5018868;28;20562;-71
2023/06/26 11:12:47;;;;;;;4.25;3.88;;;26.10;99.90;;;;;;5057866;28;20508;-72
2023/06/26 11:15:15;;;;;;;4.10;3.70;;;26.20;99.90;;;;;;5055734;28;20064;-71
2023/06/26 11:17:42;;;;;;;5.53;3.47;;;26.10;99.90;;;;;;5051742;28;20049;-69
2023/06/26 11:20:12;;;;;;;4.25;3.85;;;26.10;99.90;;;;;;5052528;28;20060;-71
2023/06/26 11:22:40;;;;;;;5.18;3.63;;;26.00;99.90;;;;;;5051874;28;20032;-70
2023/06/26 11:25:07;;;;;;;4.35;3.35;;;26.10;99.90;;;;;;5051257;28;20119;-71
2023/06/26 11:27:43;;;;;;;4.93;3.60;;;26.00;99.90;;;;;;5048658;28;20056;-70
2023/06/26 11:30:11;;;;;;;4.35;3.40;;;25.90;99.90;;;;;;5053124;28;20628;-65
2023/06/26 11:32:37;;;;;;;4.40;3.95;;;25.90;99.90;;;;;;5049981;28;20688;-65
2023/06/26 11:35:04;;;;;;;5.47;3.95;;;26.00;99.90;;;;;;5057369;28;20037;-66
2023/06/26 11:37:31;;;;;;;4.20;3.53;;;26.10;99.90;;;;;;5056217;28;20667;-65
2023/06/26 11:39:57;;;;;;;4.07;3.67;;;26.20;99.90;;;;;;5052147;28;20163;-65
2023/06/26 11:42:24;;;;;;;5.35;4.00;;;26.30;99.90;;;;;;5050220;28;20036;-65
2023/06/26 11:44:50;;;;;;;5.40;4.07;;;26.40;99.90;;;;;;5055982;28;20075;-65
2023/06/26 11:47:20;;;;;;;4.20;3.78;;;26.40;99.90;;;;;;5057303;28;20454;-65
2023/06/26 11:49:49;;;;;;;3.95;3.55;;;26.30;99.90;;;;;;5052686;28;20474;-65
2023/06/26 11:52:16;;;;;;;3.97;3.63;;;26.40;99.90;;;;;;5057984;28;20054;-65
2023/06/26 11:54:45;;;;;;;3.70;3.40;;;26.60;99.90;;;;;;5055068;28;20044;-65
2023/06/26 11:57:15;;;;;;;4.07;3.17;;;26.60;99.90;;;;;;5047939;28;20056;-65
2023/06/26 11:59:41;;;;;;;3.65;3.35;;;26.60;99.90;;;;;;5043676;28;20162;-65
2023/06/26 12:02:12;;;;;;;3.75;3.42;;;26.60;99.90;;;;;;5047406;28;20084;-65
2023/06/26 12:04:41;;;;;;;4.68;3.22;;;26.60;99.90;;;;;;5046239;28;20047;-65
2023/06/26 12:07:09;;;;;;;3.72;3.42;;;26.80;99.90;;;;;;5042852;28;20036;-65
2023/06/26 12:09:43;;;;;;;3.70;3.40;;;26.80;99.90;;;;;;5041847;28;20130;-65
2023/06/26 12:12:10;;;;;;;4.28;3.30;;;26.80;99.90;;;;;;5041741;28;20067;-65
2023/06/26 12:14:36;;;;;;;3.60;3.30;;;26.90;99.90;;;;;;5038061;28;20036;-65
2023/06/26 12:17:08;;;;;;;5.15;3.42;;;26.80;99.90;;;;;;5044336;28;20118;-65
2023/06/26 12:19:37;;;;;;;4.82;3.65;;;26.70;99.90;;;;;;5047354;28;20105;-65
2023/06/26 12:22:07;;;;;;;4.10;3.70;;;26.60;99.90;;;;;;5046859;28;20025;-65
2023/06/26 12:24:33;;;;;;;3.03;2.72;;;26.80;99.90;;;;;;5042891;28;20497;-66
2023/06/26 12:26:58;;;;;;;6.10;3.30;;;26.90;99.90;;;;;;5018680;28;20059;-69
2023/06/26 12:29:34;;;;;;;9.32;3.55;;;27.00;99.90;;;;;;5034076;28;20048;-69
2023/06/26 12:32:00;;;;;;;3.80;3.50;;;27.00;99.90;;;;;;5045757;28;20055;-69
2023/06/26 12:34:38;;;;;;;3.58;3.28;;;27.10;99.90;;;;;;5056192;28;20462;-69
2023/06/26 12:37:09;;;;;;;3.40;3.10;;;27.10;99.90;;;;;;5051762;28;20404;-67
2023/06/26 12:39:56;;;;;;;3.55;3.10;;;27.10;99.90;;;;;;5045975;28;20048;-69
2023/06/26 12:42:28;;;;;;;3.50;3.20;;;27.20;99.90;;;;;;5030183;28;20044;-67
2023/06/26 12:44:56;;;;;;;3.78;3.47;;;27.20;99.90;;;;;;5053562;28;20037;-67
2023/06/26 12:47:30;;;;;;;3.78;3.40;;;27.20;99.90;;;;;;5052377;28;20033;-67
2023/06/26 12:49:57;;;;;;;4.00;3.70;;;27.20;99.90;;;;;;5056268;28;20035;-67